sensor_id;sensor_type;location;lat;lon;timestamp;pressure;altitude;pressure_sealevel;temperature;humidity
53699;BME280;68408;53.952;27.612;2023-04-09T00:01:21;1019.6;;;9.7;69.6
53699;BME280;68408;53.952;27.612;2023-04-09T00:06:21;1019.6;;;9.6;69.9
53699;BME280;68408;53.952;27.612;2023-04-09T00:11:43;1019.6;;;9.6;69.8
53699;BME280;68408;53.952;27.612;2023-04-09T00:16:35;1019.6;;;9.7;69.3
53699;BME280;68408;53.952;27.612;2023-04-09T00:21:01;1019.5;;;9.7;68.9
53699;BME280;68408;53.952;27.612;2023-04-09T00:26:35;1019.5;;;9.8;68.5
53699;BME280;68408;53.952;27.612;2023-04-09T00:31:05;1019.5;;;9.9;68
53699;BME280;68408;53.952;27.612;2023-04-09T00:36:43;1019.5;;;9.9;67.8
53699;BME280;68408;53.952;27.612;2023-04-09T00:41:35;1019.5;;;10;67.1
53699;BME280;68408;53.952;27.612;2023-04-09T00:45:55;1019.5;;;10;66.6
53699;BME280;68408;53.952;27.612;2023-04-09T00:51:07;1019.4;;;10.1;66.2
53699;BME280;68408;53.952;27.612;2023-04-09T00:56:21;1019.4;;;10.2;65.6
53699;BME280;68408;53.952;27.612;2023-04-09T01:01:45;1019.5;;;10.2;65.2
53699;BME280;68408;53.952;27.612;2023-04-09T01:06:37;1019.4;;;10.3;64.8
53699;BME280;68408;53.952;27.612;2023-04-09T01:10:57;1019.5;;;10.3;64.8
53699;BME280;68408;53.952;27.612;2023-04-09T01:16:35;1019.4;;;10.4;64.4
53699;BME280;68408;53.952;27.612;2023-04-09T01:21:29;1019.4;;;10.4;64.2
53699;BME280;68408;53.952;27.612;2023-04-09T01:26:09;1019.4;;;10.4;64.1
53699;BME280;68408;53.952;27.612;2023-04-09T01:31:36;1019.4;;;10.3;63.9
53699;BME280;68408;53.952;27.612;2023-04-09T01:36:05;1019.4;;;10.2;63.8
53699;BME280;68408;53.952;27.612;2023-04-09T01:41:35;1019.4;;;10.1;63.9
53699;BME280;68408;53.952;27.612;2023-04-09T01:46:21;1019.4;;;10;64
53699;BME280;68408;53.952;27.612;2023-04-09T01:51:43;1019.4;;;9.8;64.3
53699;BME280;68408;53.952;27.612;2023-04-09T01:56:39;1019.4;;;9.8;64.5
53699;BME280;68408;53.952;27.612;2023-04-09T02:00:55;1019.4;;;9.7;64.7
53699;BME280;68408;53.952;27.612;2023-04-09T02:06:36;1019.4;;;9.6;64.9
53699;BME280;68408;53.952;27.612;2023-04-09T02:11:21;1019.4;;;9.6;64.9
53699;BME280;68408;53.952;27.612;2023-04-09T02:16:43;1019.4;;;9.5;65
53699;BME280;68408;53.952;27.612;2023-04-09T02:21:21;1019.5;;;9.5;64.8
53699;BME280;68408;53.952;27.612;2023-04-09T02:26:03;1019.5;;;9.5;64.4
53699;BME280;68408;53.952;27.612;2023-04-09T02:31:33;1019.4;;;9.5;64
53699;BME280;68408;53.952;27.612;2023-04-09T02:36:15;1019.4;;;9.5;64.1
53699;BME280;68408;53.952;27.612;2023-04-09T02:41:45;1019.4;;;9.4;63.9
53699;BME280;68408;53.952;27.612;2023-04-09T02:46:21;1019.4;;;9.4;63.9
53699;BME280;68408;53.952;27.612;2023-04-09T02:51:05;1019.4;;;9.3;64
53699;BME280;68408;53.952;27.612;2023-04-09T02:56:35;1019.4;;;9.3;64
53699;BME280;68408;53.952;27.612;2023-04-09T03:01:21;1019.4;;;9.3;63.8
53699;BME280;68408;53.952;27.612;2023-04-09T03:06:43;1019.5;;;9.4;63.5
53699;BME280;68408;53.952;27.612;2023-04-09T03:11:21;1019.4;;;9.4;63.5
53699;BME280;68408;53.952;27.612;2023-04-09T03:16:11;1019.5;;;9.4;63.6
53699;BME280;68408;53.952;27.612;2023-04-09T03:21:33;1019.5;;;9.4;63.5
53699;BME280;68408;53.952;27.612;2023-04-09T03:26:21;1019.4;;;9.5;63.3
53699;BME280;68408;53.952;27.612;2023-04-09T03:31:43;1019.4;;;9.5;63.2
53699;BME280;68408;53.952;27.612;2023-04-09T03:36:21;1019.4;;;9.5;63
53699;BME280;68408;53.952;27.612;2023-04-09T03:40:55;1019.5;;;9.6;62.9
53699;BME280;68408;53.952;27.612;2023-04-09T03:46:35;1019.5;;;9.7;62.3
53699;BME280;68408;53.952;27.612;2023-04-09T03:51:21;1019.5;;;9.8;61.6
53699;BME280;68408;53.952;27.612;2023-04-09T03:56:43;1019.6;;;9.8;61.2
53699;BME280;68408;53.952;27.612;2023-04-09T04:01:19;1019.6;;;9.8;61.5
53699;BME280;68408;53.952;27.612;2023-04-09T04:06:01;1019.6;;;9.7;61.8
53699;BME280;68408;53.952;27.612;2023-04-09T04:11:35;1019.6;;;9.6;61.9
53699;BME280;68408;53.952;27.612;2023-04-09T04:15:55;1019.6;;;9.7;61.9
53699;BME280;68408;53.952;27.612;2023-04-09T04:21:45;1019.6;;;9.8;61.4
53699;BME280;68408;53.952;27.612;2023-04-09T04:26:19;1019.6;;;9.9;61.3
53699;BME280;68408;53.952;27.612;2023-04-09T04:31:10;1019.6;;;10;60.7
53699;BME280;68408;53.952;27.612;2023-04-09T04:36:35;1019.6;;;10.1;60.3
53699;BME280;68408;53.952;27.612;2023-04-09T04:41:21;1019.6;;;10.3;59.7
53699;BME280;68408;53.952;27.612;2023-04-09T04:46:43;1019.6;;;10.4;59.3
53699;BME280;68408;53.952;27.612;2023-04-09T04:50:55;1019.6;;;10.6;58.9
53699;BME280;68408;53.952;27.612;2023-04-09T04:56:05;1019.6;;;10.7;58.6
53699;BME280;68408;53.952;27.612;2023-04-09T05:01:35;1019.6;;;10.8;58.5
53699;BME280;68408;53.952;27.612;2023-04-09T05:06:21;1019.6;;;10.9;58.4
53699;BME280;68408;53.952;27.612;2023-04-09T05:11:43;1019.6;;;10.9;58.7
53699;BME280;68408;53.952;27.612;2023-04-09T05:16:21;1019.6;;;10.8;58.8
53699;BME280;68408;53.952;27.612;2023-04-09T05:21:05;1019.6;;;10.8;58.8
53699;BME280;68408;53.952;27.612;2023-04-09T05:26:35;1019.6;;;10.9;59
53699;BME280;68408;53.952;27.612;2023-04-09T05:31:11;1019.7;;;11.1;58.7
53699;BME280;68408;53.952;27.612;2023-04-09T05:36:43;1019.7;;;11.4;57.8
53699;BME280;68408;53.952;27.612;2023-04-09T05:41:29;1019.7;;;11.7;56.1
53699;BME280;68408;53.952;27.612;2023-04-09T05:46:25;1019.7;;;11.9;55.3
53699;BME280;68408;53.952;27.612;2023-04-09T05:51:35;1019.7;;;12.2;55
53699;BME280;68408;53.952;27.612;2023-04-09T05:56:41;1019.7;;;12.6;54.1
53699;BME280;68408;53.952;27.612;2023-04-09T06:01:45;1019.8;;;12.9;52.9
53699;BME280;68408;53.952;27.612;2023-04-09T06:05:55;1019.8;;;13.1;51.9
53699;BME280;68408;53.952;27.612;2023-04-09T06:11:19;1019.8;;;13.1;52.1
53699;BME280;68408;53.952;27.612;2023-04-09T06:16:35;1019.8;;;13.3;52
53699;BME280;68408;53.952;27.612;2023-04-09T06:21:21;1019.8;;;13.5;51.8
53699;BME280;68408;53.952;27.612;2023-04-09T06:25:55;1019.8;;;13.7;51.5
53699;BME280;68408;53.952;27.612;2023-04-09T06:31:11;1019.8;;;13.9;51
53699;BME280;68408;53.952;27.612;2023-04-09T06:36:05;1019.9;;;14.1;50.5
53699;BME280;68408;53.952;27.612;2023-04-09T06:41:35;1019.9;;;14.3;50
53699;BME280;68408;53.952;27.612;2023-04-09T06:46:11;1019.9;;;14.4;49.7
53699;BME280;68408;53.952;27.612;2023-04-09T06:51:43;1019.9;;;14.5;49.2
53699;BME280;68408;53.952;27.612;2023-04-09T06:56:21;1019.9;;;14.8;48.4
53699;BME280;68408;53.952;27.612;2023-04-09T07:00:55;1019.9;;;15.1;47
53699;BME280;68408;53.952;27.612;2023-04-09T07:06:31;1020;;;15.5;46.3
53699;BME280;68408;53.952;27.612;2023-04-09T07:10:55;1020;;;15.8;45.1
53699;BME280;68408;53.952;27.612;2023-04-09T07:16:25;1020;;;16;44.9
53699;BME280;68408;53.952;27.612;2023-04-09T07:21:21;1020;;;16.2;44.1
53699;BME280;68408;53.952;27.612;2023-04-09T07:26:05;1020;;;16.2;43.7
53699;BME280;68408;53.952;27.612;2023-04-09T07:31:33;1020.1;;;16;43.2
53699;BME280;68408;53.952;27.612;2023-04-09T07:36:03;1020.1;;;15.8;42.7
53699;BME280;68408;53.952;27.612;2023-04-09T07:41:13;1020.1;;;15.8;42.9
53699;BME280;68408;53.952;27.612;2023-04-09T07:46:05;1020;;;16.1;42.4
53699;BME280;68408;53.952;27.612;2023-04-09T07:51:05;1020;;;16.3;41.6
53699;BME280;68408;53.952;27.612;2023-04-09T07:56:19;1020;;;16.3;41.6
53699;BME280;68408;53.952;27.612;2023-04-09T08:01:13;1020;;;16.5;41.1
53699;BME280;68408;53.952;27.612;2023-04-09T08:06:43;1020;;;16.6;40.4
53699;BME280;68408;53.952;27.612;2023-04-09T08:10:55;1020;;;17;40.2
53699;BME280;68408;53.952;27.612;2023-04-09T08:15:55;1019.9;;;17.2;39.5
53699;BME280;68408;53.952;27.612;2023-04-09T08:21:45;1019.8;;;17.6;39
53699;BME280;68408;53.952;27.612;2023-04-09T08:26:05;1019.8;;;17.9;38.2
53699;BME280;68408;53.952;27.612;2023-04-09T08:31:43;1019.8;;;17.9;37.4
53699;BME280;68408;53.952;27.612;2023-04-09T08:36:21;1019.7;;;18.1;37.6
53699;BME280;68408;53.952;27.612;2023-04-09T08:41:03;1019.7;;;18.1;37
53699;BME280;68408;53.952;27.612;2023-04-09T08:46:35;1019.7;;;18.2;37.2
53699;BME280;68408;53.952;27.612;2023-04-09T08:51:05;1019.7;;;18.3;37.4
53699;BME280;68408;53.952;27.612;2023-04-09T08:56:43;1019.7;;;18.3;37.2
53699;BME280;68408;53.952;27.612;2023-04-09T09:00:55;1019.7;;;18.1;36.8
53699;BME280;68408;53.952;27.612;2023-04-09T09:06:01;1019.7;;;18.1;36.8
53699;BME280;68408;53.952;27.612;2023-04-09T09:11:07;1019.7;;;18;36.7
53699;BME280;68408;53.952;27.612;2023-04-09T09:16:13;1019.7;;;18;36.5
53699;BME280;68408;53.952;27.612;2023-04-09T09:21:53;1019.7;;;17.9;36.2
53699;BME280;68408;53.952;27.612;2023-04-09T09:25:55;1019.7;;;17.9;36.4
53699;BME280;68408;53.952;27.612;2023-04-09T09:31:00;1019.7;;;18.1;36
53699;BME280;68408;53.952;27.612;2023-04-09T09:36:33;1019.7;;;18.1;35.9
53699;BME280;68408;53.952;27.612;2023-04-09T09:41:15;1019.7;;;18.3;35.9
53699;BME280;68408;53.952;27.612;2023-04-09T09:46:43;1019.6;;;18.4;35.5
53699;BME280;68408;53.952;27.612;2023-04-09T09:51:24;1019.6;;;18.6;35.4
53699;BME280;68408;53.952;27.612;2023-04-09T09:56:06;1019.6;;;18.6;35
53699;BME280;68408;53.952;27.612;2023-04-09T10:01:18;1019.6;;;18.6;34.9
53699;BME280;68408;53.952;27.612;2023-04-09T10:06:15;1019.6;;;18.6;35
53699;BME280;68408;53.952;27.612;2023-04-09T10:11:43;1019.5;;;18.6;35.1
53699;BME280;68408;53.952;27.612;2023-04-09T10:15:55;1019.5;;;18.6;35.2
53699;BME280;68408;53.952;27.612;2023-04-09T10:21:16;1019.5;;;18.7;35
53699;BME280;68408;53.952;27.612;2023-04-09T10:26:11;1019.5;;;18.5;34.9
53699;BME280;68408;53.952;27.612;2023-04-09T10:30:56;1019.5;;;18.4;34.9
53699;BME280;68408;53.952;27.612;2023-04-09T10:36:44;1019.5;;;18.4;35.1
53699;BME280;68408;53.952;27.612;2023-04-09T10:41:12;1019.5;;;18.7;34.8
53699;BME280;68408;53.952;27.612;2023-04-09T10:46:24;1019.4;;;18.9;34.3
53699;BME280;68408;53.952;27.612;2023-04-09T10:51:46;1019.4;;;19.1;34.2
53699;BME280;68408;53.952;27.612;2023-04-09T10:55:55;1019.3;;;19.4;34.1
53699;BME280;68408;53.952;27.612;2023-04-09T11:01:23;1019.3;;;19.5;33.9
53699;BME280;68408;53.952;27.612;2023-04-09T11:06:21;1019.3;;;19.5;34
53699;BME280;68408;53.952;27.612;2023-04-09T11:11:24;1019.2;;;19.6;34.1
53699;BME280;68408;53.952;27.612;2023-04-09T11:16:39;1019.2;;;19.8;34.1
53699;BME280;68408;53.952;27.612;2023-04-09T11:20:56;1019.2;;;19.5;34.1
53699;BME280;68408;53.952;27.612;2023-04-09T11:26:24;1019.2;;;19.4;34.2
53699;BME280;68408;53.952;27.612;2023-04-09T11:31:25;1019.2;;;19.2;34
53699;BME280;68408;53.952;27.612;2023-04-09T11:36:23;1019.2;;;19;34.1
53699;BME280;68408;53.952;27.612;2023-04-09T11:41:41;1019.1;;;19;34.2
53699;BME280;68408;53.952;27.612;2023-04-09T11:45:55;1019.1;;;19.1;33.9
53699;BME280;68408;53.952;27.612;2023-04-09T11:51:23;1019.1;;;19.4;33.6
53699;BME280;68408;53.952;27.612;2023-04-09T11:56:19;1019.1;;;19.4;33.3
53699;BME280;68408;53.952;27.612;2023-04-09T12:01:20;1019;;;19.4;33.5
53699;BME280;68408;53.952;27.612;2023-04-09T12:06:41;1019;;;19.6;33
53699;BME280;68408;53.952;27.612;2023-04-09T12:11:07;1018.9;;;19.7;32.8
53699;BME280;68408;53.952;27.612;2023-04-09T12:16:39;1018.9;;;19.6;33
53699;BME280;68408;53.952;27.612;2023-04-09T12:21:22;1018.9;;;19.2;33.7
53699;BME280;68408;53.952;27.612;2023-04-09T12:26:25;1018.8;;;18.9;34.2
53699;BME280;68408;53.952;27.612;2023-04-09T12:31:33;1018.8;;;18.9;33.5
53699;BME280;68408;53.952;27.612;2023-04-09T12:36:11;1018.8;;;18.7;33.3
53699;BME280;68408;53.952;27.612;2023-04-09T12:41:23;1018.8;;;18.4;33.6
53699;BME280;68408;53.952;27.612;2023-04-09T12:46:05;1018.8;;;18.4;33.8
53699;BME280;68408;53.952;27.612;2023-04-09T12:51:23;1018.7;;;18.6;33.2
53699;BME280;68408;53.952;27.612;2023-04-09T12:56:37;1018.7;;;18.9;32.4
53699;BME280;68408;53.952;27.612;2023-04-09T13:00:55;1018.7;;;19.1;32.1
53699;BME280;68408;53.952;27.612;2023-04-09T13:06:23;1018.7;;;19;31.7
53699;BME280;68408;53.952;27.612;2023-04-09T13:11:19;1018.8;;;18.8;31.7
53699;BME280;68408;53.952;27.612;2023-04-09T13:16:23;1018.8;;;18.7;32
53699;BME280;68408;53.952;27.612;2023-04-09T13:21:39;1018.8;;;18.6;31.6
53699;BME280;68408;53.952;27.612;2023-04-09T13:25:55;1018.8;;;18.4;31.8
53699;BME280;68408;53.952;27.612;2023-04-09T13:31:13;1018.8;;;18.3;32.1
53699;BME280;68408;53.952;27.612;2023-04-09T13:36:17;1018.8;;;18.3;31.8
53699;BME280;68408;53.952;27.612;2023-04-09T13:41:38;1018.7;;;18.3;31.6
53699;BME280;68408;53.952;27.612;2023-04-09T13:46:41;1018.7;;;18.5;31.4
53699;BME280;68408;53.952;27.612;2023-04-09T13:51:13;1018.7;;;18.7;31
53699;BME280;68408;53.952;27.612;2023-04-09T13:56:08;1018.7;;;18.8;31
53699;BME280;68408;53.952;27.612;2023-04-09T14:01:19;1018.7;;;18.6;30.9
53699;BME280;68408;53.952;27.612;2023-04-09T14:06:25;1018.6;;;18.4;31
53699;BME280;68408;53.952;27.612;2023-04-09T14:11:41;1018.6;;;18.2;31.4
53699;BME280;68408;53.952;27.612;2023-04-09T14:16:06;1018.5;;;18.2;32.5
53699;BME280;68408;53.952;27.612;2023-04-09T14:21:27;1018.5;;;18.2;33.7
53699;BME280;68408;53.952;27.612;2023-04-09T14:26:05;1018.5;;;18.3;32.7
53699;BME280;68408;53.952;27.612;2023-04-09T14:31:25;1018.5;;;18.4;32.4
53699;BME280;68408;53.952;27.612;2023-04-09T14:36:46;1018.5;;;18.5;32.2
53699;BME280;68408;53.952;27.612;2023-04-09T14:40:56;1018.4;;;18.5;32.2
53699;BME280;68408;53.952;27.612;2023-04-09T14:45:57;1018.4;;;18.6;31.7
53699;BME280;68408;53.952;27.612;2023-04-09T14:51:20;1018.4;;;18.6;31.4
53699;BME280;68408;53.952;27.612;2023-04-09T14:56:28;1018.4;;;18.6;30.7
53699;BME280;68408;53.952;27.612;2023-04-09T15:01:06;1018.4;;;18.5;30.6
53699;BME280;68408;53.952;27.612;2023-04-09T15:05:56;1018.4;;;18.5;30.3
53699;BME280;68408;53.952;27.612;2023-04-09T15:11:19;1018.4;;;18.5;30.6
53699;BME280;68408;53.952;27.612;2023-04-09T15:16:26;1018.4;;;18.5;30.3
53699;BME280;68408;53.952;27.612;2023-04-09T15:21:42;1018.3;;;18.5;31.7
53699;BME280;68408;53.952;27.612;2023-04-09T15:25:56;1018.3;;;18.5;33
53699;BME280;68408;53.952;27.612;2023-04-09T15:31:18;1018.4;;;18.4;35.6
53699;BME280;68408;53.952;27.612;2023-04-09T15:36:16;1018.4;;;18.1;37.2
53699;BME280;68408;53.952;27.612;2023-04-09T15:41:20;1018.5;;;17.7;38.5
53699;BME280;68408;53.952;27.612;2023-04-09T15:46:44;1018.5;;;17.3;39.6
53699;BME280;68408;53.952;27.612;2023-04-09T15:51:16;1018.6;;;17.1;40.3
53699;BME280;68408;53.952;27.612;2023-04-09T15:55:56;1018.6;;;16.8;41.2
53699;BME280;68408;53.952;27.612;2023-04-09T16:01:16;1018.6;;;16.6;42.1
53699;BME280;68408;53.952;27.612;2023-04-09T16:06:28;1018.6;;;16.3;42.8
53699;BME280;68408;53.952;27.612;2023-04-09T16:11:40;1018.6;;;16.2;43.3
53699;BME280;68408;53.952;27.612;2023-04-09T16:16:38;1018.6;;;16.1;43.8
53699;BME280;68408;53.952;27.612;2023-04-09T16:21:16;1018.7;;;16;44.3
53699;BME280;68408;53.952;27.612;2023-04-09T16:26:16;1018.7;;;15.8;44.7
53699;BME280;68408;53.952;27.612;2023-04-09T16:31:30;1018.8;;;15.7;45.3
53699;BME280;68408;53.952;27.612;2023-04-09T16:36:42;1018.8;;;15.5;45.6
53699;BME280;68408;53.952;27.612;2023-04-09T16:41:14;1018.9;;;15.3;46.2
53699;BME280;68408;53.952;27.612;2023-04-09T16:46:16;1018.9;;;15.1;46.6
53699;BME280;68408;53.952;27.612;2023-04-09T16:50:56;1019;;;14.9;47.1
53699;BME280;68408;53.952;27.612;2023-04-09T16:56:08;1019;;;14.7;47.5
53699;BME280;68408;53.952;27.612;2023-04-09T17:01:44;1019;;;14.5;47.9
53699;BME280;68408;53.952;27.612;2023-04-09T17:06:16;1019;;;14.3;48.5
53699;BME280;68408;53.952;27.612;2023-04-09T17:11:06;1019.1;;;14.2;49.2
53699;BME280;68408;53.952;27.612;2023-04-09T17:16:14;1019.1;;;14;49.6
53699;BME280;68408;53.952;27.612;2023-04-09T17:21:30;1019.2;;;13.9;49.8
53699;BME280;68408;53.952;27.612;2023-04-09T17:26:42;1019.2;;;13.8;50.3
53699;BME280;68408;53.952;27.612;2023-04-09T17:31:14;1019.2;;;13.8;50.5
53699;BME280;68408;53.952;27.612;2023-04-09T17:35:56;1019.3;;;13.7;50.9
53699;BME280;68408;53.952;27.612;2023-04-09T17:41:16;1019.3;;;13.6;51
53699;BME280;68408;53.952;27.612;2023-04-09T17:46:08;1019.4;;;13.5;51.3
53699;BME280;68408;53.952;27.612;2023-04-09T17:51:32;1019.4;;;13.5;51.5
53699;BME280;68408;53.952;27.612;2023-04-09T17:56:04;1019.5;;;13.5;51.9
53699;BME280;68408;53.952;27.612;2023-04-09T18:01:05;1019.5;;;13.4;52.1
53699;BME280;68408;53.952;27.612;2023-04-09T18:06:04;1019.5;;;13.4;52.3
53699;BME280;68408;53.952;27.612;2023-04-09T18:11:30;1019.6;;;13.3;52.5
53699;BME280;68408;53.952;27.612;2023-04-09T18:16:40;1019.7;;;13.3;52.4
53699;BME280;68408;53.952;27.612;2023-04-09T18:21:16;1019.7;;;13.2;52.6
53699;BME280;68408;53.952;27.612;2023-04-09T18:25:56;1019.7;;;13.1;53
53699;BME280;68408;53.952;27.612;2023-04-09T18:31:12;1019.6;;;12.9;53.5
53699;BME280;68408;53.952;27.612;2023-04-09T18:35:58;1019.7;;;12.8;53.9
53699;BME280;68408;53.952;27.612;2023-04-09T18:41:42;1019.7;;;12.7;54.4
53699;BME280;68408;53.952;27.612;2023-04-09T18:46:16;1019.7;;;12.6;54.5
53699;BME280;68408;53.952;27.612;2023-04-09T18:51:06;1019.7;;;12.5;54.9
53699;BME280;68408;53.952;27.612;2023-04-09T18:55:56;1019.7;;;12.4;55.3
53699;BME280;68408;53.952;27.612;2023-04-09T19:01:30;1019.7;;;12.5;55.5
53699;BME280;68408;53.952;27.612;2023-04-09T19:06:42;1019.7;;;12.5;55.6
53699;BME280;68408;53.952;27.612;2023-04-09T19:10:56;1019.8;;;12.5;55.6
53699;BME280;68408;53.952;27.612;2023-04-09T19:16:06;1019.8;;;12.5;55.7
53699;BME280;68408;53.952;27.612;2023-04-09T19:21:18;1019.8;;;12.5;55.7
53699;BME280;68408;53.952;27.612;2023-04-09T19:26:30;1019.8;;;12.5;55.9
53699;BME280;68408;53.952;27.612;2023-04-09T19:31:44;1019.7;;;12.5;56
53699;BME280;68408;53.952;27.612;2023-04-09T19:36:30;1019.7;;;12.5;56.1
53699;BME280;68408;53.952;27.612;2023-04-09T19:40:56;1019.7;;;12.4;56.4
53699;BME280;68408;53.952;27.612;2023-04-09T19:46:06;1019.7;;;12.4;56.5
53699;BME280;68408;53.952;27.612;2023-04-09T19:51:32;1019.6;;;12.3;56.6
53699;BME280;68408;53.952;27.612;2023-04-09T19:56:44;1019.6;;;12.3;56.7
53699;BME280;68408;53.952;27.612;2023-04-09T20:01:46;1019.6;;;12.3;56.8
53699;BME280;68408;53.952;27.612;2023-04-09T20:05:56;1019.7;;;12.2;56.9
53699;BME280;68408;53.952;27.612;2023-04-09T20:11:06;1019.7;;;12.2;56.9
53699;BME280;68408;53.952;27.612;2023-04-09T20:16:30;1019.7;;;12.2;57
53699;BME280;68408;53.952;27.612;2023-04-09T20:21:42;1019.7;;;12.1;57.2
53699;BME280;68408;53.952;27.612;2023-04-09T20:26:14;1019.7;;;12.1;57.3
53699;BME280;68408;53.952;27.612;2023-04-09T20:31:06;1019.7;;;12;57.6
53699;BME280;68408;53.952;27.612;2023-04-09T20:36:17;1019.7;;;11.9;57.9
53699;BME280;68408;53.952;27.612;2023-04-09T20:41:30;1019.7;;;11.8;58
53699;BME280;68408;53.952;27.612;2023-04-09T20:46:42;1019.7;;;11.8;58.1
53699;BME280;68408;53.952;27.612;2023-04-09T20:51:30;1019.7;;;11.7;58.2
53699;BME280;68408;53.952;27.612;2023-04-09T20:55:56;1019.7;;;11.6;58.3
53699;BME280;68408;53.952;27.612;2023-04-09T21:01:16;1019.7;;;11.6;58.6
53699;BME280;68408;53.952;27.612;2023-04-09T21:06:04;1019.6;;;11.5;58.6
53699;BME280;68408;53.952;27.612;2023-04-09T21:11:42;1019.7;;;11.5;58.7
53699;BME280;68408;53.952;27.612;2023-04-09T21:16:30;1019.7;;;11.4;58.6
53699;BME280;68408;53.952;27.612;2023-04-09T21:21:06;1019.7;;;11.4;58.7
53699;BME280;68408;53.952;27.612;2023-04-09T21:26:16;1019.7;;;11.4;58.9
53699;BME280;68408;53.952;27.612;2023-04-09T21:31:30;1019.7;;;11.3;58.8
53699;BME280;68408;53.952;27.612;2023-04-09T21:36:42;1019.7;;;11.3;58.7
53699;BME280;68408;53.952;27.612;2023-04-09T21:41:42;1019.7;;;11.3;58.6
53699;BME280;68408;53.952;27.612;2023-04-09T21:45:56;1019.7;;;11.2;59
53699;BME280;68408;53.952;27.612;2023-04-09T21:51:16;1019.7;;;11.2;59.2
53699;BME280;68408;53.952;27.612;2023-04-09T21:56:30;1019.7;;;11.2;59.5
53699;BME280;68408;53.952;27.612;2023-04-09T22:01:42;1019.7;;;11.1;59.7
53699;BME280;68408;53.952;27.612;2023-04-09T22:06:30;1019.7;;;11;59.9
53699;BME280;68408;53.952;27.612;2023-04-09T22:11:06;1019.7;;;11;60
53699;BME280;68408;53.952;27.612;2023-04-09T22:16:04;1019.7;;;10.9;60
53699;BME280;68408;53.952;27.612;2023-04-09T22:20:58;1019.7;;;10.9;59.9
53699;BME280;68408;53.952;27.612;2023-04-09T22:26:42;1019.7;;;10.8;60.1
53699;BME280;68408;53.952;27.612;2023-04-09T22:31:30;1019.7;;;10.7;60.2
53699;BME280;68408;53.952;27.612;2023-04-09T22:36:06;1019.7;;;10.7;60.2
53699;BME280;68408;53.952;27.612;2023-04-09T22:41:06;1019.7;;;10.6;60.3
53699;BME280;68408;53.952;27.612;2023-04-09T22:46:30;1019.7;;;10.5;60.5
53699;BME280;68408;53.952;27.612;2023-04-09T22:51:14;1019.6;;;10.5;60.6
53699;BME280;68408;53.952;27.612;2023-04-09T22:56:30;1019.7;;;10.4;60.7
53699;BME280;68408;53.952;27.612;2023-04-09T23:00:56;1019.7;;;10.4;60.9
53699;BME280;68408;53.952;27.612;2023-04-09T23:06:16;1019.6;;;10.3;61.1
53699;BME280;68408;53.952;27.612;2023-04-09T23:11:30;1019.6;;;10.3;61.1
53699;BME280;68408;53.952;27.612;2023-04-09T23:16:42;1019.6;;;10.3;61
53699;BME280;68408;53.952;27.612;2023-04-09T23:21:30;1019.6;;;10.3;60.9
53699;BME280;68408;53.952;27.612;2023-04-09T23:26:06;1019.5;;;10.2;61.3
53699;BME280;68408;53.952;27.612;2023-04-09T23:31:06;1019.5;;;10.1;61.5
53699;BME280;68408;53.952;27.612;2023-04-09T23:36:20;1019.6;;;10.1;61.5
53699;BME280;68408;53.952;27.612;2023-04-09T23:41:30;1019.6;;;10;61.7
53699;BME280;68408;53.952;27.612;2023-04-09T23:46:42;1019.5;;;9.9;62.2
53699;BME280;68408;53.952;27.612;2023-04-09T23:50:56;1019.5;;;9.8;62.4
53699;BME280;68408;53.952;27.612;2023-04-09T23:56:16;1019.5;;;9.7;62.6
